sensor_id;sensor_type;location;lat;lon;timestamp;P1;durP1;ratioP1;P2;durP2;ratioP2
10335;SDS011;5213;53.548;9.930;2023-02-23T00:01:17;25.73;;;14.82;;
10335;SDS011;5213;53.548;9.930;2023-02-23T00:03:44;28.60;;;15.88;;
10335;SDS011;5213;53.548;9.930;2023-02-23T00:06:11;30.98;;;15.70;;
10335;SDS011;5213;53.548;9.930;2023-02-23T00:08:38;29.23;;;16.48;;
10335;SDS011;5213;53.548;9.930;2023-02-23T00:11:05;31.67;;;17.25;;
10335;SDS011;5213;53.548;9.930;2023-02-23T00:13:31;29.85;;;16.58;;
10335;SDS011;5213;53.548;9.930;2023-02-23T00:16:09;31.17;;;15.45;;
10335;SDS011;5213;53.548;9.930;2023-02-23T00:18:42;30.08;;;15.85;;
10335;SDS011;5213;53.548;9.930;2023-02-23T00:21:13;31.85;;;16.10;;
10335;SDS011;5213;53.548;9.930;2023-02-23T00:23:50;31.10;;;16.58;;
10335;SDS011;5213;53.548;9.930;2023-02-23T00:26:16;32.83;;;16.40;;
10335;SDS011;5213;53.548;9.930;2023-02-23T00:28:45;30.30;;;16.70;;
10335;SDS011;5213;53.548;9.930;2023-02-23T00:31:11;29.00;;;16.33;;
10335;SDS011;5213;53.548;9.930;2023-02-23T00:33:38;32.20;;;16.55;;
10335;SDS011;5213;53.548;9.930;2023-02-23T00:36:09;30.20;;;16.65;;
10335;SDS011;5213;53.548;9.930;2023-02-23T00:38:35;29.23;;;16.08;;
10335;SDS011;5213;53.548;9.930;2023-02-23T00:41:05;28.52;;;16.48;;
10335;SDS011;5213;53.548;9.930;2023-02-23T00:43:32;32.80;;;16.77;;
10335;SDS011;5213;53.548;9.930;2023-02-23T00:45:58;30.95;;;16.90;;
10335;SDS011;5213;53.548;9.930;2023-02-23T00:48:24;29.35;;;16.80;;
10335;SDS011;5213;53.548;9.930;2023-02-23T00:50:59;31.60;;;16.40;;
10335;SDS011;5213;53.548;9.930;2023-02-23T00:53:25;30.92;;;16.48;;
10335;SDS011;5213;53.548;9.930;2023-02-23T00:55:52;30.00;;;16.00;;
10335;SDS011;5213;53.548;9.930;2023-02-23T00:58:18;29.58;;;16.23;;
10335;SDS011;5213;53.548;9.930;2023-02-23T01:00:44;28.17;;;15.65;;
10335;SDS011;5213;53.548;9.930;2023-02-23T01:03:10;30.75;;;16.73;;
10335;SDS011;5213;53.548;9.930;2023-02-23T01:05:36;29.38;;;16.63;;
10335;SDS011;5213;53.548;9.930;2023-02-23T01:08:02;34.40;;;17.77;;
10335;SDS011;5213;53.548;9.930;2023-02-23T01:10:33;32.40;;;17.17;;
10335;SDS011;5213;53.548;9.930;2023-02-23T01:13:00;32.80;;;17.00;;
10335;SDS011;5213;53.548;9.930;2023-02-23T01:15:27;34.38;;;18.60;;
10335;SDS011;5213;53.548;9.930;2023-02-23T01:17:53;34.08;;;17.65;;
10335;SDS011;5213;53.548;9.930;2023-02-23T01:20:19;28.55;;;17.30;;
10335;SDS011;5213;53.548;9.930;2023-02-23T01:22:46;32.03;;;18.00;;
10335;SDS011;5213;53.548;9.930;2023-02-23T01:25:12;34.50;;;18.10;;
10335;SDS011;5213;53.548;9.930;2023-02-23T01:27:39;33.13;;;18.80;;
10335;SDS011;5213;53.548;9.930;2023-02-23T01:30:05;31.92;;;17.83;;
10335;SDS011;5213;53.548;9.930;2023-02-23T01:32:33;32.25;;;17.48;;
10335;SDS011;5213;53.548;9.930;2023-02-23T01:35:00;32.38;;;17.92;;
10335;SDS011;5213;53.548;9.930;2023-02-23T01:37:28;35.17;;;18.60;;
10335;SDS011;5213;53.548;9.930;2023-02-23T01:39:54;35.85;;;18.02;;
10335;SDS011;5213;53.548;9.930;2023-02-23T01:42:20;33.03;;;17.63;;
10335;SDS011;5213;53.548;9.930;2023-02-23T01:47:14;31.67;;;17.48;;
10335;SDS011;5213;53.548;9.930;2023-02-23T01:49:41;31.30;;;17.08;;
10335;SDS011;5213;53.548;9.930;2023-02-23T01:52:08;31.80;;;17.08;;
10335;SDS011;5213;53.548;9.930;2023-02-23T01:54:36;33.20;;;16.90;;
10335;SDS011;5213;53.548;9.930;2023-02-23T01:57:03;29.40;;;16.98;;
10335;SDS011;5213;53.548;9.930;2023-02-23T01:59:37;31.00;;;17.92;;
10335;SDS011;5213;53.548;9.930;2023-02-23T02:02:03;30.80;;;18.00;;
10335;SDS011;5213;53.548;9.930;2023-02-23T02:04:30;29.88;;;16.90;;
10335;SDS011;5213;53.548;9.930;2023-02-23T02:07:02;32.38;;;17.23;;
10335;SDS011;5213;53.548;9.930;2023-02-23T02:09:28;31.50;;;17.17;;
10335;SDS011;5213;53.548;9.930;2023-02-23T02:11:54;28.98;;;16.75;;
10335;SDS011;5213;53.548;9.930;2023-02-23T02:14:21;30.05;;;18.08;;
10335;SDS011;5213;53.548;9.930;2023-02-23T02:16:51;29.55;;;17.63;;
10335;SDS011;5213;53.548;9.930;2023-02-23T02:22:09;31.58;;;17.83;;
10335;SDS011;5213;53.548;9.930;2023-02-23T02:45:42;29.40;;;16.92;;
10335;SDS011;5213;53.548;9.930;2023-02-23T02:48:14;27.90;;;15.48;;
10335;SDS011;5213;53.548;9.930;2023-02-23T02:53:07;28.67;;;17.27;;
10335;SDS011;5213;53.548;9.930;2023-02-23T02:55:34;27.63;;;17.05;;
10335;SDS011;5213;53.548;9.930;2023-02-23T02:58:02;31.63;;;17.52;;
10335;SDS011;5213;53.548;9.930;2023-02-23T03:00:36;29.30;;;16.38;;
10335;SDS011;5213;53.548;9.930;2023-02-23T03:09:20;34.90;;;18.33;;
10335;SDS011;5213;53.548;9.930;2023-02-23T03:15:21;27.42;;;16.80;;
10335;SDS011;5213;53.548;9.930;2023-02-23T03:20:53;33.90;;;17.42;;
10335;SDS011;5213;53.548;9.930;2023-02-23T03:26:29;30.23;;;17.38;;
10335;SDS011;5213;53.548;9.930;2023-02-23T03:40:43;34.40;;;18.15;;
10335;SDS011;5213;53.548;9.930;2023-02-23T03:43:33;37.08;;;18.58;;
10335;SDS011;5213;53.548;9.930;2023-02-23T03:46:19;28.77;;;17.13;;
10335;SDS011;5213;53.548;9.930;2023-02-23T03:49:06;35.95;;;19.15;;
10335;SDS011;5213;53.548;9.930;2023-02-23T03:51:54;34.13;;;18.00;;
10335;SDS011;5213;53.548;9.930;2023-02-23T03:54:43;31.75;;;17.70;;
10335;SDS011;5213;53.548;9.930;2023-02-23T03:57:29;30.23;;;16.45;;
10335;SDS011;5213;53.548;9.930;2023-02-23T04:00:18;33.30;;;18.17;;
10335;SDS011;5213;53.548;9.930;2023-02-23T04:03:04;30.20;;;17.73;;
10335;SDS011;5213;53.548;9.930;2023-02-23T04:05:51;27.65;;;16.40;;
10335;SDS011;5213;53.548;9.930;2023-02-23T04:08:36;35.13;;;18.77;;
10335;SDS011;5213;53.548;9.930;2023-02-23T04:11:27;29.48;;;16.92;;
10335;SDS011;5213;53.548;9.930;2023-02-23T04:14:25;29.92;;;18.27;;
10335;SDS011;5213;53.548;9.930;2023-02-23T04:16:52;27.00;;;16.40;;
10335;SDS011;5213;53.548;9.930;2023-02-23T04:19:18;29.95;;;17.45;;
10335;SDS011;5213;53.548;9.930;2023-02-23T04:21:44;28.05;;;17.58;;
10335;SDS011;5213;53.548;9.930;2023-02-23T04:24:10;30.95;;;18.60;;
10335;SDS011;5213;53.548;9.930;2023-02-23T04:26:36;30.42;;;18.77;;
10335;SDS011;5213;53.548;9.930;2023-02-23T04:29:02;29.83;;;19.00;;
10335;SDS011;5213;53.548;9.930;2023-02-23T04:31:28;31.17;;;19.75;;
10335;SDS011;5213;53.548;9.930;2023-02-23T04:33:54;28.10;;;17.85;;
10335;SDS011;5213;53.548;9.930;2023-02-23T04:36:20;30.35;;;17.95;;
10335;SDS011;5213;53.548;9.930;2023-02-23T04:38:48;27.10;;;16.70;;
10335;SDS011;5213;53.548;9.930;2023-02-23T04:41:14;26.83;;;17.80;;
10335;SDS011;5213;53.548;9.930;2023-02-23T04:43:40;29.98;;;17.70;;
10335;SDS011;5213;53.548;9.930;2023-02-23T04:46:06;26.65;;;17.52;;
10335;SDS011;5213;53.548;9.930;2023-02-23T04:48:32;30.42;;;17.92;;
10335;SDS011;5213;53.548;9.930;2023-02-23T04:50:58;28.42;;;17.38;;
10335;SDS011;5213;53.548;9.930;2023-02-23T04:53:24;29.00;;;17.10;;
10335;SDS011;5213;53.548;9.930;2023-02-23T04:55:51;30.83;;;18.23;;
10335;SDS011;5213;53.548;9.930;2023-02-23T04:58:17;27.60;;;17.20;;
10335;SDS011;5213;53.548;9.930;2023-02-23T05:00:43;30.80;;;17.58;;
10335;SDS011;5213;53.548;9.930;2023-02-23T05:03:09;28.45;;;17.17;;
10335;SDS011;5213;53.548;9.930;2023-02-23T05:05:36;32.13;;;18.15;;
10335;SDS011;5213;53.548;9.930;2023-02-23T05:08:02;28.60;;;18.33;;
10335;SDS011;5213;53.548;9.930;2023-02-23T05:10:28;29.00;;;17.52;;
10335;SDS011;5213;53.548;9.930;2023-02-23T05:12:54;31.48;;;17.85;;
10335;SDS011;5213;53.548;9.930;2023-02-23T05:15:20;28.95;;;17.50;;
10335;SDS011;5213;53.548;9.930;2023-02-23T05:17:46;27.17;;;17.02;;
10335;SDS011;5213;53.548;9.930;2023-02-23T05:20:12;30.17;;;17.27;;
10335;SDS011;5213;53.548;9.930;2023-02-23T05:22:39;28.45;;;17.65;;
10335;SDS011;5213;53.548;9.930;2023-02-23T05:25:05;31.02;;;18.02;;
10335;SDS011;5213;53.548;9.930;2023-02-23T05:27:32;32.20;;;18.83;;
10335;SDS011;5213;53.548;9.930;2023-02-23T05:29:58;28.48;;;17.38;;
10335;SDS011;5213;53.548;9.930;2023-02-23T05:32:25;34.03;;;18.88;;
10335;SDS011;5213;53.548;9.930;2023-02-23T05:34:51;32.30;;;19.27;;
10335;SDS011;5213;53.548;9.930;2023-02-23T05:37:17;32.38;;;18.92;;
10335;SDS011;5213;53.548;9.930;2023-02-23T05:39:44;31.83;;;18.17;;
10335;SDS011;5213;53.548;9.930;2023-02-23T05:42:10;30.42;;;17.60;;
10335;SDS011;5213;53.548;9.930;2023-02-23T05:44:37;28.10;;;16.90;;
10335;SDS011;5213;53.548;9.930;2023-02-23T05:47:03;33.83;;;18.98;;
10335;SDS011;5213;53.548;9.930;2023-02-23T05:49:29;28.05;;;17.58;;
10335;SDS011;5213;53.548;9.930;2023-02-23T05:51:54;27.63;;;18.05;;
10335;SDS011;5213;53.548;9.930;2023-02-23T05:54:21;29.63;;;17.98;;
10335;SDS011;5213;53.548;9.930;2023-02-23T05:56:47;28.30;;;17.73;;
10335;SDS011;5213;53.548;9.930;2023-02-23T05:59:13;29.08;;;17.30;;
10335;SDS011;5213;53.548;9.930;2023-02-23T06:01:41;32.13;;;18.65;;
10335;SDS011;5213;53.548;9.930;2023-02-23T06:04:07;28.83;;;17.83;;
10335;SDS011;5213;53.548;9.930;2023-02-23T06:06:34;33.42;;;19.20;;
10335;SDS011;5213;53.548;9.930;2023-02-23T06:09:00;33.42;;;19.27;;
10335;SDS011;5213;53.548;9.930;2023-02-23T06:11:27;30.45;;;18.42;;
10335;SDS011;5213;53.548;9.930;2023-02-23T06:13:53;32.25;;;19.00;;
10335;SDS011;5213;53.548;9.930;2023-02-23T06:16:19;36.35;;;19.42;;
10335;SDS011;5213;53.548;9.930;2023-02-23T06:18:45;33.83;;;19.35;;
10335;SDS011;5213;53.548;9.930;2023-02-23T06:21:11;34.38;;;18.60;;
10335;SDS011;5213;53.548;9.930;2023-02-23T06:23:38;37.95;;;21.02;;
10335;SDS011;5213;53.548;9.930;2023-02-23T06:26:04;36.85;;;20.55;;
10335;SDS011;5213;53.548;9.930;2023-02-23T06:28:30;41.38;;;21.17;;
10335;SDS011;5213;53.548;9.930;2023-02-23T06:30:57;41.75;;;21.23;;
10335;SDS011;5213;53.548;9.930;2023-02-23T06:33:23;37.33;;;20.55;;
10335;SDS011;5213;53.548;9.930;2023-02-23T06:35:49;34.88;;;19.42;;
10335;SDS011;5213;53.548;9.930;2023-02-23T06:38:16;39.67;;;21.15;;
10335;SDS011;5213;53.548;9.930;2023-02-23T06:40:42;41.78;;;21.08;;
10335;SDS011;5213;53.548;9.930;2023-02-23T06:43:08;37.30;;;21.00;;
10335;SDS011;5213;53.548;9.930;2023-02-23T06:45:35;37.80;;;20.13;;
10335;SDS011;5213;53.548;9.930;2023-02-23T06:48:00;42.97;;;22.30;;
10335;SDS011;5213;53.548;9.930;2023-02-23T06:50:26;38.95;;;20.95;;
10335;SDS011;5213;53.548;9.930;2023-02-23T06:52:53;38.53;;;19.92;;
10335;SDS011;5213;53.548;9.930;2023-02-23T06:55:20;39.85;;;20.48;;
10335;SDS011;5213;53.548;9.930;2023-02-23T06:57:47;36.88;;;21.23;;
10335;SDS011;5213;53.548;9.930;2023-02-23T07:00:14;44.53;;;22.45;;
10335;SDS011;5213;53.548;9.930;2023-02-23T07:02:41;38.83;;;20.85;;
10335;SDS011;5213;53.548;9.930;2023-02-23T07:05:09;42.92;;;22.13;;
10335;SDS011;5213;53.548;9.930;2023-02-23T07:07:35;44.58;;;22.17;;
10335;SDS011;5213;53.548;9.930;2023-02-23T07:10:02;44.80;;;22.75;;
10335;SDS011;5213;53.548;9.930;2023-02-23T07:12:29;41.17;;;21.15;;
10335;SDS011;5213;53.548;9.930;2023-02-23T07:14:55;46.20;;;22.65;;
10335;SDS011;5213;53.548;9.930;2023-02-23T07:17:21;41.55;;;21.83;;
10335;SDS011;5213;53.548;9.930;2023-02-23T07:19:47;42.42;;;21.42;;
10335;SDS011;5213;53.548;9.930;2023-02-23T07:22:13;47.05;;;22.95;;
10335;SDS011;5213;53.548;9.930;2023-02-23T07:24:39;46.15;;;23.75;;
10335;SDS011;5213;53.548;9.930;2023-02-23T07:27:05;47.90;;;23.55;;
10335;SDS011;5213;53.548;9.930;2023-02-23T07:29:31;44.03;;;22.92;;
10335;SDS011;5213;53.548;9.930;2023-02-23T07:31:57;46.47;;;23.35;;
10335;SDS011;5213;53.548;9.930;2023-02-23T07:34:23;43.53;;;22.23;;
10335;SDS011;5213;53.548;9.930;2023-02-23T07:36:49;51.00;;;23.45;;
10335;SDS011;5213;53.548;9.930;2023-02-23T07:39:15;45.63;;;23.48;;
10335;SDS011;5213;53.548;9.930;2023-02-23T07:41:41;43.65;;;22.85;;
10335;SDS011;5213;53.548;9.930;2023-02-23T07:44:07;48.92;;;25.30;;
10335;SDS011;5213;53.548;9.930;2023-02-23T07:46:33;46.17;;;22.88;;
10335;SDS011;5213;53.548;9.930;2023-02-23T07:48:59;46.90;;;23.58;;
10335;SDS011;5213;53.548;9.930;2023-02-23T07:51:25;48.30;;;23.27;;
10335;SDS011;5213;53.548;9.930;2023-02-23T07:53:51;42.97;;;22.85;;
10335;SDS011;5213;53.548;9.930;2023-02-23T07:56:19;42.03;;;21.50;;
10335;SDS011;5213;53.548;9.930;2023-02-23T07:58:45;41.55;;;22.02;;
10335;SDS011;5213;53.548;9.930;2023-02-23T08:01:11;39.70;;;21.27;;
10335;SDS011;5213;53.548;9.930;2023-02-23T08:03:38;38.80;;;21.17;;
10335;SDS011;5213;53.548;9.930;2023-02-23T08:06:04;37.95;;;20.52;;
10335;SDS011;5213;53.548;9.930;2023-02-23T08:08:30;42.05;;;23.05;;
10335;SDS011;5213;53.548;9.930;2023-02-23T08:10:58;40.50;;;20.25;;
10335;SDS011;5213;53.548;9.930;2023-02-23T08:13:24;40.05;;;20.98;;
10335;SDS011;5213;53.548;9.930;2023-02-23T08:15:50;43.58;;;22.08;;
10335;SDS011;5213;53.548;9.930;2023-02-23T08:18:16;39.30;;;21.40;;
10335;SDS011;5213;53.548;9.930;2023-02-23T08:20:42;42.25;;;21.83;;
10335;SDS011;5213;53.548;9.930;2023-02-23T08:23:08;42.50;;;20.25;;
10335;SDS011;5213;53.548;9.930;2023-02-23T08:25:35;44.70;;;21.55;;
10335;SDS011;5213;53.548;9.930;2023-02-23T08:28:01;40.13;;;20.95;;
10335;SDS011;5213;53.548;9.930;2023-02-23T08:30:30;39.05;;;20.60;;
10335;SDS011;5213;53.548;9.930;2023-02-23T08:32:57;42.35;;;21.08;;
10335;SDS011;5213;53.548;9.930;2023-02-23T08:35:24;38.53;;;20.58;;
10335;SDS011;5213;53.548;9.930;2023-02-23T08:37:50;40.50;;;21.35;;
10335;SDS011;5213;53.548;9.930;2023-02-23T08:40:16;38.67;;;21.77;;
10335;SDS011;5213;53.548;9.930;2023-02-23T08:42:43;36.47;;;19.80;;
10335;SDS011;5213;53.548;9.930;2023-02-23T08:45:10;43.08;;;21.67;;
10335;SDS011;5213;53.548;9.930;2023-02-23T08:47:36;42.15;;;20.98;;
10335;SDS011;5213;53.548;9.930;2023-02-23T08:50:03;37.92;;;21.63;;
10335;SDS011;5213;53.548;9.930;2023-02-23T08:52:29;38.80;;;20.95;;
10335;SDS011;5213;53.548;9.930;2023-02-23T08:54:55;37.75;;;20.60;;
10335;SDS011;5213;53.548;9.930;2023-02-23T08:57:22;38.80;;;19.52;;
10335;SDS011;5213;53.548;9.930;2023-02-23T08:59:48;41.95;;;21.40;;
10335;SDS011;5213;53.548;9.930;2023-02-23T09:02:14;37.70;;;20.77;;
10335;SDS011;5213;53.548;9.930;2023-02-23T09:04:40;39.63;;;21.00;;
10335;SDS011;5213;53.548;9.930;2023-02-23T09:07:07;38.85;;;21.63;;
10335;SDS011;5213;53.548;9.930;2023-02-23T09:09:33;36.28;;;19.65;;
10335;SDS011;5213;53.548;9.930;2023-02-23T09:11:59;44.17;;;22.33;;
10335;SDS011;5213;53.548;9.930;2023-02-23T09:14:26;39.65;;;22.00;;
10335;SDS011;5213;53.548;9.930;2023-02-23T09:16:52;47.20;;;24.75;;
10335;SDS011;5213;53.548;9.930;2023-02-23T09:19:18;48.22;;;25.10;;
10335;SDS011;5213;53.548;9.930;2023-02-23T09:21:44;51.97;;;26.30;;
10335;SDS011;5213;53.548;9.930;2023-02-23T09:24:10;55.85;;;26.27;;
10335;SDS011;5213;53.548;9.930;2023-02-23T09:26:36;56.15;;;27.10;;
10335;SDS011;5213;53.548;9.930;2023-02-23T09:29:04;54.38;;;26.48;;
10335;SDS011;5213;53.548;9.930;2023-02-23T09:31:30;54.08;;;26.33;;
10335;SDS011;5213;53.548;9.930;2023-02-23T09:33:57;56.28;;;26.92;;
10335;SDS011;5213;53.548;9.930;2023-02-23T09:36:24;59.15;;;27.80;;
10335;SDS011;5213;53.548;9.930;2023-02-23T09:38:52;62.15;;;29.17;;
10335;SDS011;5213;53.548;9.930;2023-02-23T09:48:52;87.25;;;34.08;;
10335;SDS011;5213;53.548;9.930;2023-02-23T09:51:20;83.55;;;35.03;;
10335;SDS011;5213;53.548;9.930;2023-02-23T09:53:52;76.95;;;33.80;;
10335;SDS011;5213;53.548;9.930;2023-02-23T09:58:47;87.53;;;35.25;;
10335;SDS011;5213;53.548;9.930;2023-02-23T10:06:46;80.63;;;34.55;;
10335;SDS011;5213;53.548;9.930;2023-02-23T10:12:21;80.03;;;33.45;;
10335;SDS011;5213;53.548;9.930;2023-02-23T10:15:07;76.55;;;33.00;;
10335;SDS011;5213;53.548;9.930;2023-02-23T10:17:39;81.35;;;32.53;;
10335;SDS011;5213;53.548;9.930;2023-02-23T10:20:18;77.25;;;32.40;;
10335;SDS011;5213;53.548;9.930;2023-02-23T10:22:44;76.70;;;32.55;;
10335;SDS011;5213;53.548;9.930;2023-02-23T10:25:14;78.35;;;34.30;;
10335;SDS011;5213;53.548;9.930;2023-02-23T10:27:48;77.03;;;30.67;;
10335;SDS011;5213;53.548;9.930;2023-02-23T10:30:28;77.00;;;31.70;;
10335;SDS011;5213;53.548;9.930;2023-02-23T10:35:43;69.68;;;29.27;;
10335;SDS011;5213;53.548;9.930;2023-02-23T10:38:16;71.55;;;29.35;;
10335;SDS011;5213;53.548;9.930;2023-02-23T10:40:49;77.80;;;31.85;;
10335;SDS011;5213;53.548;9.930;2023-02-23T10:43:15;76.78;;;30.13;;
10335;SDS011;5213;53.548;9.930;2023-02-23T10:45:46;73.78;;;31.20;;
10335;SDS011;5213;53.548;9.930;2023-02-23T10:48:15;77.90;;;31.00;;
10335;SDS011;5213;53.548;9.930;2023-02-23T10:50:41;79.38;;;32.03;;
10335;SDS011;5213;53.548;9.930;2023-02-23T10:53:15;75.57;;;30.75;;
10335;SDS011;5213;53.548;9.930;2023-02-23T10:55:42;74.95;;;29.92;;
10335;SDS011;5213;53.548;9.930;2023-02-23T10:58:16;78.80;;;30.60;;
10335;SDS011;5213;53.548;9.930;2023-02-23T11:00:57;81.05;;;29.85;;
10335;SDS011;5213;53.548;9.930;2023-02-23T11:03:28;79.43;;;29.02;;
10335;SDS011;5213;53.548;9.930;2023-02-23T11:05:57;84.25;;;31.30;;
10335;SDS011;5213;53.548;9.930;2023-02-23T11:08:27;81.95;;;29.85;;
10335;SDS011;5213;53.548;9.930;2023-02-23T11:13:36;69.07;;;27.30;;
10335;SDS011;5213;53.548;9.930;2023-02-23T11:16:07;76.47;;;28.55;;
10335;SDS011;5213;53.548;9.930;2023-02-23T11:18:34;68.35;;;28.58;;
10335;SDS011;5213;53.548;9.930;2023-02-23T11:21:00;72.20;;;27.70;;
10335;SDS011;5213;53.548;9.930;2023-02-23T11:23:30;62.92;;;25.92;;
10335;SDS011;5213;53.548;9.930;2023-02-23T11:25:59;62.13;;;26.00;;
10335;SDS011;5213;53.548;9.930;2023-02-23T11:28:33;59.38;;;24.65;;
10335;SDS011;5213;53.548;9.930;2023-02-23T11:31:07;57.47;;;24.65;;
10335;SDS011;5213;53.548;9.930;2023-02-23T11:33:33;59.15;;;25.70;;
10335;SDS011;5213;53.548;9.930;2023-02-23T11:38:40;61.15;;;25.33;;
10335;SDS011;5213;53.548;9.930;2023-02-23T11:41:27;61.72;;;27.23;;
10335;SDS011;5213;53.548;9.930;2023-02-23T11:43:56;55.80;;;24.83;;
10335;SDS011;5213;53.548;9.930;2023-02-23T11:46:23;57.58;;;25.38;;
10335;SDS011;5213;53.548;9.930;2023-02-23T11:48:50;62.25;;;26.40;;
10335;SDS011;5213;53.548;9.930;2023-02-23T11:51:37;57.35;;;24.95;;
10335;SDS011;5213;53.548;9.930;2023-02-23T11:54:04;60.40;;;25.55;;
10335;SDS011;5213;53.548;9.930;2023-02-23T11:56:34;57.80;;;25.50;;
10335;SDS011;5213;53.548;9.930;2023-02-23T11:59:02;55.70;;;24.38;;
10335;SDS011;5213;53.548;9.930;2023-02-23T12:01:41;55.17;;;24.30;;
10335;SDS011;5213;53.548;9.930;2023-02-23T12:06:49;53.80;;;22.13;;
10335;SDS011;5213;53.548;9.930;2023-02-23T12:09:17;54.67;;;23.83;;
10335;SDS011;5213;53.548;9.930;2023-02-23T12:11:47;52.58;;;23.00;;
10335;SDS011;5213;53.548;9.930;2023-02-23T12:14:21;51.28;;;22.85;;
10335;SDS011;5213;53.548;9.930;2023-02-23T12:16:50;52.97;;;24.08;;
10335;SDS011;5213;53.548;9.930;2023-02-23T12:22:01;55.05;;;24.30;;
10335;SDS011;5213;53.548;9.930;2023-02-23T12:32:32;50.50;;;23.70;;
10335;SDS011;5213;53.548;9.930;2023-02-23T12:35:01;55.13;;;24.42;;
10335;SDS011;5213;53.548;9.930;2023-02-23T12:37:43;54.30;;;23.23;;
10335;SDS011;5213;53.548;9.930;2023-02-23T12:40:12;55.05;;;23.23;;
10335;SDS011;5213;53.548;9.930;2023-02-23T12:45:14;54.25;;;22.42;;
10335;SDS011;5213;53.548;9.930;2023-02-23T12:50:47;46.50;;;20.55;;
10335;SDS011;5213;53.548;9.930;2023-02-23T12:53:11;51.83;;;22.85;;
10335;SDS011;5213;53.548;9.930;2023-02-23T12:55:49;56.03;;;23.85;;
10335;SDS011;5213;53.548;9.930;2023-02-23T13:01:03;50.83;;;22.73;;
10335;SDS011;5213;53.548;9.930;2023-02-23T13:06:28;54.60;;;22.40;;
10335;SDS011;5213;53.548;9.930;2023-02-23T13:11:58;53.90;;;24.60;;
10335;SDS011;5213;53.548;9.930;2023-02-23T13:24:38;54.35;;;23.05;;
10335;SDS011;5213;53.548;9.930;2023-02-23T13:27:11;52.13;;;24.02;;
10335;SDS011;5213;53.548;9.930;2023-02-23T13:29:46;49.50;;;21.83;;
10335;SDS011;5213;53.548;9.930;2023-02-23T13:32:15;53.33;;;23.98;;
10335;SDS011;5213;53.548;9.930;2023-02-23T13:37:18;53.25;;;22.77;;
10335;SDS011;5213;53.548;9.930;2023-02-23T13:40:00;47.78;;;21.70;;
10335;SDS011;5213;53.548;9.930;2023-02-23T13:50:14;44.60;;;19.63;;
10335;SDS011;5213;53.548;9.930;2023-02-23T13:52:42;40.22;;;16.15;;
10335;SDS011;5213;53.548;9.930;2023-02-23T13:58:15;39.08;;;17.73;;
10335;SDS011;5213;53.548;9.930;2023-02-23T14:00:39;33.45;;;16.42;;
10335;SDS011;5213;53.548;9.930;2023-02-23T14:03:07;30.83;;;13.85;;
10335;SDS011;5213;53.548;9.930;2023-02-23T14:05:42;36.47;;;15.90;;
10335;SDS011;5213;53.548;9.930;2023-02-23T14:08:17;31.92;;;15.65;;
10335;SDS011;5213;53.548;9.930;2023-02-23T14:10:45;35.53;;;15.30;;
10335;SDS011;5213;53.548;9.930;2023-02-23T14:18:48;32.80;;;14.40;;
10335;SDS011;5213;53.548;9.930;2023-02-23T14:38:58;26.15;;;12.13;;
10335;SDS011;5213;53.548;9.930;2023-02-23T14:44:17;26.30;;;11.07;;
10335;SDS011;5213;53.548;9.930;2023-02-23T14:46:48;25.33;;;11.18;;
10335;SDS011;5213;53.548;9.930;2023-02-23T14:49:17;25.75;;;11.90;;
10335;SDS011;5213;53.548;9.930;2023-02-23T14:51:44;24.77;;;10.80;;
10335;SDS011;5213;53.548;9.930;2023-02-23T14:54:23;23.15;;;10.40;;
10335;SDS011;5213;53.548;9.930;2023-02-23T14:56:50;23.30;;;10.95;;
10335;SDS011;5213;53.548;9.930;2023-02-23T14:59:17;22.98;;;10.23;;
10335;SDS011;5213;53.548;9.930;2023-02-23T15:01:45;24.42;;;11.40;;
10335;SDS011;5213;53.548;9.930;2023-02-23T15:04:22;27.13;;;10.82;;
10335;SDS011;5213;53.548;9.930;2023-02-23T15:06:48;24.65;;;11.00;;
10335;SDS011;5213;53.548;9.930;2023-02-23T15:09:37;24.20;;;10.60;;
10335;SDS011;5213;53.548;9.930;2023-02-23T15:12:23;22.67;;;10.20;;
10335;SDS011;5213;53.548;9.930;2023-02-23T15:14:52;22.58;;;10.45;;
10335;SDS011;5213;53.548;9.930;2023-02-23T15:17:22;25.40;;;11.10;;
10335;SDS011;5213;53.548;9.930;2023-02-23T15:19:52;25.05;;;11.05;;
10335;SDS011;5213;53.548;9.930;2023-02-23T15:22:26;23.60;;;10.65;;
10335;SDS011;5213;53.548;9.930;2023-02-23T15:24:55;23.85;;;10.75;;
10335;SDS011;5213;53.548;9.930;2023-02-23T15:27:22;21.85;;;9.93;;
10335;SDS011;5213;53.548;9.930;2023-02-23T15:29:51;18.63;;;9.43;;
10335;SDS011;5213;53.548;9.930;2023-02-23T15:32:21;23.73;;;10.60;;
10335;SDS011;5213;53.548;9.930;2023-02-23T15:34:49;23.92;;;10.23;;
10335;SDS011;5213;53.548;9.930;2023-02-23T15:39:52;23.50;;;10.85;;
10335;SDS011;5213;53.548;9.930;2023-02-23T15:42:23;23.83;;;10.82;;
10335;SDS011;5213;53.548;9.930;2023-02-23T15:44:53;24.05;;;10.57;;
10335;SDS011;5213;53.548;9.930;2023-02-23T15:47:20;18.23;;;9.52;;
10335;SDS011;5213;53.548;9.930;2023-02-23T15:50:01;29.40;;;12.20;;
10335;SDS011;5213;53.548;9.930;2023-02-23T15:52:29;31.05;;;12.65;;
10335;SDS011;5213;53.548;9.930;2023-02-23T15:55:06;29.55;;;13.18;;
10335;SDS011;5213;53.548;9.930;2023-02-23T15:57:33;29.08;;;12.63;;
10335;SDS011;5213;53.548;9.930;2023-02-23T16:00:00;25.88;;;11.95;;
10335;SDS011;5213;53.548;9.930;2023-02-23T16:02:31;27.20;;;12.15;;
10335;SDS011;5213;53.548;9.930;2023-02-23T16:05:05;26.67;;;11.10;;
10335;SDS011;5213;53.548;9.930;2023-02-23T16:07:36;28.52;;;11.80;;
10335;SDS011;5213;53.548;9.930;2023-02-23T16:10:20;28.23;;;11.52;;
10335;SDS011;5213;53.548;9.930;2023-02-23T16:12:48;22.58;;;10.25;;
10335;SDS011;5213;53.548;9.930;2023-02-23T16:15:24;25.48;;;10.95;;
10335;SDS011;5213;53.548;9.930;2023-02-23T16:17:51;30.33;;;10.88;;
10335;SDS011;5213;53.548;9.930;2023-02-23T16:20:36;29.98;;;10.18;;
10335;SDS011;5213;53.548;9.930;2023-02-23T16:23:03;25.63;;;9.88;;
10335;SDS011;5213;53.548;9.930;2023-02-23T16:25:30;25.15;;;9.40;;
10335;SDS011;5213;53.548;9.930;2023-02-23T16:27:58;28.25;;;9.00;;
10335;SDS011;5213;53.548;9.930;2023-02-23T16:35:35;19.92;;;6.45;;
10335;SDS011;5213;53.548;9.930;2023-02-23T16:38:02;19.55;;;6.32;;
10335;SDS011;5213;53.548;9.930;2023-02-23T16:40:29;25.63;;;6.53;;
10335;SDS011;5213;53.548;9.930;2023-02-23T16:42:55;23.13;;;7.00;;
10335;SDS011;5213;53.548;9.930;2023-02-23T16:45:23;23.13;;;6.50;;
10335;SDS011;5213;53.548;9.930;2023-02-23T16:47:51;41.03;;;7.07;;
10335;SDS011;5213;53.548;9.930;2023-02-23T16:50:18;29.77;;;6.30;;
10335;SDS011;5213;53.548;9.930;2023-02-23T16:52:45;35.67;;;7.20;;
10335;SDS011;5213;53.548;9.930;2023-02-23T16:55:14;37.50;;;7.55;;
10335;SDS011;5213;53.548;9.930;2023-02-23T16:57:41;36.75;;;8.15;;
10335;SDS011;5213;53.548;9.930;2023-02-23T17:00:08;23.73;;;5.65;;
10335;SDS011;5213;53.548;9.930;2023-02-23T17:02:38;20.08;;;5.38;;
10335;SDS011;5213;53.548;9.930;2023-02-23T17:05:09;16.25;;;4.32;;
10335;SDS011;5213;53.548;9.930;2023-02-23T17:07:37;17.58;;;4.22;;
10335;SDS011;5213;53.548;9.930;2023-02-23T17:10:04;17.20;;;4.15;;
10335;SDS011;5213;53.548;9.930;2023-02-23T17:12:30;15.15;;;3.92;;
10335;SDS011;5213;53.548;9.930;2023-02-23T17:14:56;16.08;;;4.13;;
10335;SDS011;5213;53.548;9.930;2023-02-23T17:17:22;13.02;;;3.72;;
10335;SDS011;5213;53.548;9.930;2023-02-23T17:19:48;20.83;;;4.88;;
10335;SDS011;5213;53.548;9.930;2023-02-23T17:22:14;18.85;;;5.07;;
10335;SDS011;5213;53.548;9.930;2023-02-23T17:24:40;23.35;;;4.05;;
10335;SDS011;5213;53.548;9.930;2023-02-23T17:27:06;20.50;;;4.25;;
10335;SDS011;5213;53.548;9.930;2023-02-23T17:29:32;18.10;;;3.47;;
10335;SDS011;5213;53.548;9.930;2023-02-23T17:31:59;16.45;;;4.00;;
10335;SDS011;5213;53.548;9.930;2023-02-23T17:34:26;20.95;;;3.67;;